sensor_id;sensor_type;location;lat;lon;timestamp;pressure;altitude;pressure_sealevel;temperature;humidity
20696;BME280;10507;52.754;13.040;2022-09-09T00:00:24;101749.91;;;14.37;100.00
20696;BME280;10507;52.754;13.040;2022-09-09T00:03:00;101735.22;;;14.26;100.00
20696;BME280;10507;52.754;13.040;2022-09-09T00:05:37;101720.41;;;14.18;100.00
20696;BME280;10507;52.754;13.040;2022-09-09T00:08:07;101725.13;;;14.12;100.00
20696;BME280;10507;52.754;13.040;2022-09-09T00:10:42;101723.75;;;14.04;100.00
20696;BME280;10507;52.754;13.040;2022-09-09T00:13:16;101709.75;;;13.97;100.00
20696;BME280;10507;52.754;13.040;2022-09-09T00:15:54;101726.78;;;13.96;100.00
20696;BME280;10507;52.754;13.040;2022-09-09T00:18:27;101728.97;;;13.88;100.00
20696;BME280;10507;52.754;13.040;2022-09-09T00:21:04;101731.84;;;13.83;100.00
20696;BME280;10507;52.754;13.040;2022-09-09T00:23:35;101724.31;;;13.72;100.00
20696;BME280;10507;52.754;13.040;2022-09-09T00:26:10;101717.34;;;13.68;100.00
20696;BME280;10507;52.754;13.040;2022-09-09T00:28:46;101752.88;;;13.73;100.00
20696;BME280;10507;52.754;13.040;2022-09-09T00:31:21;101779.50;;;13.78;100.00
20696;BME280;10507;52.754;13.040;2022-09-09T00:33:53;101788.63;;;13.74;100.00
20696;BME280;10507;52.754;13.040;2022-09-09T00:36:24;101757.91;;;13.61;100.00
20696;BME280;10507;52.754;13.040;2022-09-09T00:38:57;101763.38;;;13.59;100.00
20696;BME280;10507;52.754;13.040;2022-09-09T00:41:38;101789.84;;;13.67;100.00
20696;BME280;10507;52.754;13.040;2022-09-09T00:44:21;101829.78;;;13.75;100.00
20696;BME280;10507;52.754;13.040;2022-09-09T00:49:57;101875.06;;;13.82;100.00
20696;BME280;10507;52.754;13.040;2022-09-09T00:52:36;101891.94;;;13.86;100.00
20696;BME280;10507;52.754;13.040;2022-09-09T00:55:12;101884.19;;;13.78;100.00
20696;BME280;10507;52.754;13.040;2022-09-09T00:57:42;101889.44;;;13.81;100.00
20696;BME280;10507;52.754;13.040;2022-09-09T01:00:21;101884.19;;;13.78;100.00
20696;BME280;10507;52.754;13.040;2022-09-09T01:03:18;101917.00;;;13.85;100.00
20696;BME280;10507;52.754;13.040;2022-09-09T01:05:57;101918.84;;;13.84;100.00
20696;BME280;10507;52.754;13.040;2022-09-09T01:08:46;101905.75;;;13.77;100.00
20696;BME280;10507;52.754;13.040;2022-09-09T01:11:21;101900.56;;;13.72;100.00
20696;BME280;10507;52.754;13.040;2022-09-09T01:13:53;101906.94;;;13.69;100.00
20696;BME280;10507;52.754;13.040;2022-09-09T01:16:26;101894.72;;;13.62;100.00
20696;BME280;10507;52.754;13.040;2022-09-09T01:18:58;101894.88;;;13.59;100.00
20696;BME280;10507;52.754;13.040;2022-09-09T01:21:35;101905.59;;;13.59;100.00
20696;BME280;10507;52.754;13.040;2022-09-09T01:24:16;101874.72;;;13.49;100.00
20696;BME280;10507;52.754;13.040;2022-09-09T01:26:50;101786.34;;;13.24;100.00
20696;BME280;10507;52.754;13.040;2022-09-09T01:29:21;101734.16;;;13.10;100.00
20696;BME280;10507;52.754;13.040;2022-09-09T01:31:54;101720.00;;;13.07;100.00
20696;BME280;10507;52.754;13.040;2022-09-09T01:34:25;101678.63;;;12.94;100.00
20696;BME280;10507;52.754;13.040;2022-09-09T01:36:58;101658.25;;;12.89;100.00
20696;BME280;10507;52.754;13.040;2022-09-09T01:39:26;101667.09;;;12.92;100.00
20696;BME280;10507;52.754;13.040;2022-09-09T01:41:56;101679.53;;;12.93;100.00
20696;BME280;10507;52.754;13.040;2022-09-09T01:44:24;101697.25;;;12.97;100.00
20696;BME280;10507;52.754;13.040;2022-09-09T01:46:53;101731.03;;;13.01;100.00
20696;BME280;10507;52.754;13.040;2022-09-09T01:49:21;101758.56;;;13.04;100.00
20696;BME280;10507;52.754;13.040;2022-09-09T01:51:51;101763.09;;;13.02;100.00
20696;BME280;10507;52.754;13.040;2022-09-09T01:54:20;101770.28;;;13.02;100.00
20696;BME280;10507;52.754;13.040;2022-09-09T01:56:58;101767.75;;;12.99;100.00
20696;BME280;10507;52.754;13.040;2022-09-09T01:59:44;101762.50;;;12.96;100.00
20696;BME280;10507;52.754;13.040;2022-09-09T02:02:17;101726.31;;;12.85;100.00
20696;BME280;10507;52.754;13.040;2022-09-09T02:04:48;101710.47;;;12.79;100.00
20696;BME280;10507;52.754;13.040;2022-09-09T02:07:33;101698.22;;;12.74;100.00
20696;BME280;10507;52.754;13.040;2022-09-09T02:10:10;101676.19;;;12.67;100.00
20696;BME280;10507;52.754;13.040;2022-09-09T02:12:43;101663.84;;;12.63;100.00
20696;BME280;10507;52.754;13.040;2022-09-09T02:15:17;101670.00;;;12.65;100.00
20696;BME280;10507;52.754;13.040;2022-09-09T02:17:46;101664.75;;;12.62;100.00
20696;BME280;10507;52.754;13.040;2022-09-09T02:20:14;101669.31;;;12.60;100.00
20696;BME280;10507;52.754;13.040;2022-09-09T02:22:43;101674.75;;;12.58;100.00
20696;BME280;10507;52.754;13.040;2022-09-09T02:25:15;101684.53;;;12.59;100.00
20696;BME280;10507;52.754;13.040;2022-09-09T02:27:47;101700.53;;;12.61;100.00
20696;BME280;10507;52.754;13.040;2022-09-09T02:30:16;101711.25;;;12.61;100.00
20696;BME280;10507;52.754;13.040;2022-09-09T02:32:46;101722.78;;;12.63;100.00
20696;BME280;10507;52.754;13.040;2022-09-09T02:35:16;101726.38;;;12.62;100.00
20696;BME280;10507;52.754;13.040;2022-09-09T02:37:45;101736.19;;;12.63;100.00
20696;BME280;10507;52.754;13.040;2022-09-09T02:40:15;101735.38;;;12.61;100.00
20696;BME280;10507;52.754;13.040;2022-09-09T02:42:46;101714.19;;;12.55;100.00
20696;BME280;10507;52.754;13.040;2022-09-09T02:45:16;101671.09;;;12.39;100.00
20696;BME280;10507;52.754;13.040;2022-09-09T02:47:50;101637.53;;;12.30;100.00
20696;BME280;10507;52.754;13.040;2022-09-09T02:50:22;101650.91;;;12.30;100.00
20696;BME280;10507;52.754;13.040;2022-09-09T02:53:01;101706.66;;;12.42;100.00
20696;BME280;10507;52.754;13.040;2022-09-09T02:55:39;101692.69;;;12.34;100.00
20696;BME280;10507;52.754;13.040;2022-09-09T02:58:12;101684.03;;;12.27;100.00
20696;BME280;10507;52.754;13.040;2022-09-09T03:00:43;101643.50;;;12.15;100.00
20696;BME280;10507;52.754;13.040;2022-09-09T03:03:14;101667.41;;;12.19;100.00
20696;BME280;10507;52.754;13.040;2022-09-09T03:05:43;101696.56;;;12.27;100.00
20696;BME280;10507;52.754;13.040;2022-09-09T03:08:12;101730.19;;;12.34;100.00
20696;BME280;10507;52.754;13.040;2022-09-09T03:10:40;101738.38;;;12.31;100.00
20696;BME280;10507;52.754;13.040;2022-09-09T03:13:09;101739.34;;;12.28;100.00
20696;BME280;10507;52.754;13.040;2022-09-09T03:15:39;101755.34;;;12.30;100.00
20696;BME280;10507;52.754;13.040;2022-09-09T03:18:07;101746.59;;;12.26;100.00
20696;BME280;10507;52.754;13.040;2022-09-09T03:20:34;101738.66;;;12.23;100.00
20696;BME280;10507;52.754;13.040;2022-09-09T03:23:02;101753.81;;;12.24;100.00
20696;BME280;10507;52.754;13.040;2022-09-09T03:25:30;101746.00;;;12.18;100.00
20696;BME280;10507;52.754;13.040;2022-09-09T03:27:58;101791.22;;;12.26;100.00
20696;BME280;10507;52.754;13.040;2022-09-09T03:30:28;101820.47;;;12.31;100.00
20696;BME280;10507;52.754;13.040;2022-09-09T03:32:55;101821.38;;;12.31;100.00
20696;BME280;10507;52.754;13.040;2022-09-09T03:35:23;101790.47;;;12.22;100.00
20696;BME280;10507;52.754;13.040;2022-09-09T03:37:51;101833.81;;;12.32;100.00
20696;BME280;10507;52.754;13.040;2022-09-09T03:40:21;101863.97;;;12.37;100.00
20696;BME280;10507;52.754;13.040;2022-09-09T03:42:49;101811.03;;;12.22;100.00
20696;BME280;10507;52.754;13.040;2022-09-09T03:45:17;101792.44;;;12.17;100.00
20696;BME280;10507;52.754;13.040;2022-09-09T03:47:46;101794.00;;;12.23;100.00
20696;BME280;10507;52.754;13.040;2022-09-09T03:50:14;101785.22;;;12.19;100.00
20696;BME280;10507;52.754;13.040;2022-09-09T03:52:42;101802.91;;;12.23;100.00
20696;BME280;10507;52.754;13.040;2022-09-09T03:55:10;101824.34;;;12.23;100.00
20696;BME280;10507;52.754;13.040;2022-09-09T03:57:40;101820.09;;;12.18;100.00
20696;BME280;10507;52.754;13.040;2022-09-09T04:00:08;101799.72;;;12.14;100.00
20696;BME280;10507;52.754;13.040;2022-09-09T04:02:36;101820.16;;;12.16;100.00
20696;BME280;10507;52.754;13.040;2022-09-09T04:05:07;101822.66;;;12.21;100.00
20696;BME280;10507;52.754;13.040;2022-09-09T04:07:35;101834.22;;;12.21;100.00
20696;BME280;10507;52.754;13.040;2022-09-09T04:10:04;101857.25;;;12.27;100.00
20696;BME280;10507;52.754;13.040;2022-09-09T04:12:32;101865.97;;;12.32;100.00
20696;BME280;10507;52.754;13.040;2022-09-09T04:15:01;101870.31;;;12.35;100.00
20696;BME280;10507;52.754;13.040;2022-09-09T04:17:29;101856.19;;;12.31;100.00
20696;BME280;10507;52.754;13.040;2022-09-09T04:19:57;101851.88;;;12.27;100.00
20696;BME280;10507;52.754;13.040;2022-09-09T04:22:26;101828.00;;;12.21;100.00
20696;BME280;10507;52.754;13.040;2022-09-09T04:24:53;101827.00;;;12.23;100.00
20696;BME280;10507;52.754;13.040;2022-09-09T04:27:21;101812.94;;;12.18;100.00
20696;BME280;10507;52.754;13.040;2022-09-09T04:29:49;101798.78;;;12.15;100.00
20696;BME280;10507;52.754;13.040;2022-09-09T04:32:16;101770.31;;;12.12;100.00
20696;BME280;10507;52.754;13.040;2022-09-09T04:34:44;101785.22;;;12.19;100.00
20696;BME280;10507;52.754;13.040;2022-09-09T04:37:14;101763.97;;;12.15;100.00
20696;BME280;10507;52.754;13.040;2022-09-09T04:39:42;101762.19;;;12.15;100.00
20696;BME280;10507;52.754;13.040;2022-09-09T04:42:11;101782.50;;;12.21;100.00
20696;BME280;10507;52.754;13.040;2022-09-09T04:44:39;101832.84;;;12.35;100.00
20696;BME280;10507;52.754;13.040;2022-09-09T04:47:07;101869.91;;;12.45;100.00
20696;BME280;10507;52.754;13.040;2022-09-09T04:49:34;101890.25;;;12.51;100.00
20696;BME280;10507;52.754;13.040;2022-09-09T04:52:02;101912.34;;;12.58;100.00
20696;BME280;10507;52.754;13.040;2022-09-09T04:54:30;101930.00;;;12.62;100.00
20696;BME280;10507;52.754;13.040;2022-09-09T04:57:00;101939.72;;;12.64;100.00
20696;BME280;10507;52.754;13.040;2022-09-09T04:59:27;101938.81;;;12.65;100.00
20696;BME280;10507;52.754;13.040;2022-09-09T05:01:55;101945.88;;;12.68;100.00
20696;BME280;10507;52.754;13.040;2022-09-09T05:04:23;101941.19;;;12.73;100.00
20696;BME280;10507;52.754;13.040;2022-09-09T05:06:50;101950.88;;;12.77;100.00
20696;BME280;10507;52.754;13.040;2022-09-09T05:09:18;101949.81;;;12.81;100.00
20696;BME280;10507;52.754;13.040;2022-09-09T05:11:46;101961.19;;;12.88;100.00
20696;BME280;10507;52.754;13.040;2022-09-09T05:14:16;101966.25;;;12.96;100.00
20696;BME280;10507;52.754;13.040;2022-09-09T05:16:44;101977.41;;;13.07;100.00
20696;BME280;10507;52.754;13.040;2022-09-09T05:19:13;101979.81;;;13.15;100.00
20696;BME280;10507;52.754;13.040;2022-09-09T05:21:40;101981.25;;;13.23;100.00
20696;BME280;10507;52.754;13.040;2022-09-09T05:24:08;101930.31;;;13.23;100.00
20696;BME280;10507;52.754;13.040;2022-09-09T05:26:36;101921.84;;;13.34;100.00
20696;BME280;10507;52.754;13.040;2022-09-09T05:29:04;101901.75;;;13.44;100.00
20696;BME280;10507;52.754;13.040;2022-09-09T05:31:33;101896.75;;;13.57;100.00
20696;BME280;10507;52.754;13.040;2022-09-09T05:34:01;101903.94;;;13.77;100.00
20696;BME280;10507;52.754;13.040;2022-09-09T05:36:29;101843.66;;;13.84;100.00
20696;BME280;10507;52.754;13.040;2022-09-09T05:38:56;101814.56;;;13.94;100.00
20696;BME280;10507;52.754;13.040;2022-09-09T05:41:24;101767.69;;;14.01;100.00
20696;BME280;10507;52.754;13.040;2022-09-09T05:43:52;101746.25;;;14.20;100.00
20696;BME280;10507;52.754;13.040;2022-09-09T05:46:21;101698.16;;;14.33;100.00
20696;BME280;10507;52.754;13.040;2022-09-09T05:48:51;101600.25;;;14.39;100.00
20696;BME280;10507;52.754;13.040;2022-09-09T05:51:21;101528.81;;;14.52;100.00
20696;BME280;10507;52.754;13.040;2022-09-09T05:53:49;101503.31;;;14.94;100.00
20696;BME280;10507;52.754;13.040;2022-09-09T05:56:19;101415.88;;;15.65;100.00
20696;BME280;10507;52.754;13.040;2022-09-09T05:58:48;101258.44;;;16.29;100.00
20696;BME280;10507;52.754;13.040;2022-09-09T06:01:18;101111.06;;;16.84;100.00
20696;BME280;10507;52.754;13.040;2022-09-09T06:03:49;101017.72;;;17.20;100.00
20696;BME280;10507;52.754;13.040;2022-09-09T06:06:19;100984.66;;;17.90;100.00
20696;BME280;10507;52.754;13.040;2022-09-09T06:08:50;100976.06;;;18.78;100.00
20696;BME280;10507;52.754;13.040;2022-09-09T06:11:19;100865.75;;;19.04;100.00
20696;BME280;10507;52.754;13.040;2022-09-09T06:13:48;100771.50;;;19.09;98.38
20696;BME280;10507;52.754;13.040;2022-09-09T06:16:20;100743.75;;;18.96;98.51
20696;BME280;10507;52.754;13.040;2022-09-09T06:18:52;100811.72;;;19.46;97.38
20696;BME280;10507;52.754;13.040;2022-09-09T06:21:21;100801.81;;;19.99;95.02
20696;BME280;10507;52.754;13.040;2022-09-09T06:23:50;100629.31;;;19.78;93.34
20696;BME280;10507;52.754;13.040;2022-09-09T06:26:27;100575.16;;;19.26;94.73
20696;BME280;10507;52.754;13.040;2022-09-09T06:28:57;100713.66;;;19.52;96.41
20696;BME280;10507;52.754;13.040;2022-09-09T06:31:26;100701.59;;;19.78;95.24
20696;BME280;10507;52.754;13.040;2022-09-09T06:33:58;100609.31;;;19.79;94.05
20696;BME280;10507;52.754;13.040;2022-09-09T06:36:27;100527.19;;;19.38;94.79
20696;BME280;10507;52.754;13.040;2022-09-09T06:38:55;100576.91;;;19.06;96.69
20696;BME280;10507;52.754;13.040;2022-09-09T06:41:25;100648.44;;;19.35;96.52
20696;BME280;10507;52.754;13.040;2022-09-09T06:43:53;100588.34;;;19.41;95.79
20696;BME280;10507;52.754;13.040;2022-09-09T06:46:22;100623.72;;;19.80;94.39
20696;BME280;10507;52.754;13.040;2022-09-09T06:48:54;100594.94;;;19.88;93.33
20696;BME280;10507;52.754;13.040;2022-09-09T06:51:26;100664.88;;;20.54;92.13
20696;BME280;10507;52.754;13.040;2022-09-09T06:53:56;100599.06;;;20.82;90.07
20696;BME280;10507;52.754;13.040;2022-09-09T06:56:26;100565.09;;;20.77;89.25
20696;BME280;10507;52.754;13.040;2022-09-09T06:58:55;100536.81;;;20.70;89.72
20696;BME280;10507;52.754;13.040;2022-09-09T07:01:24;100562.09;;;20.71;90.22
20696;BME280;10507;52.754;13.040;2022-09-09T07:03:54;100493.84;;;20.66;89.31
20696;BME280;10507;52.754;13.040;2022-09-09T07:06:28;100490.13;;;20.76;88.98
20696;BME280;10507;52.754;13.040;2022-09-09T07:08:57;100558.09;;;20.75;89.84
20696;BME280;10507;52.754;13.040;2022-09-09T07:11:27;100546.50;;;20.92;88.90
20696;BME280;10507;52.754;13.040;2022-09-09T07:13:57;100486.44;;;21.05;88.44
20696;BME280;10507;52.754;13.040;2022-09-09T07:16:25;100552.75;;;21.50;88.30
20696;BME280;10507;52.754;13.040;2022-09-09T07:18:54;100518.34;;;21.68;86.76
20696;BME280;10507;52.754;13.040;2022-09-09T07:21:26;100477.06;;;22.00;85.31
20696;BME280;10507;52.754;13.040;2022-09-09T07:23:55;100572.34;;;22.80;83.48
20696;BME280;10507;52.754;13.040;2022-09-09T07:26:24;100545.00;;;22.90;82.69
20696;BME280;10507;52.754;13.040;2022-09-09T07:28:53;100432.19;;;22.93;81.96
20696;BME280;10507;52.754;13.040;2022-09-09T07:31:24;100440.72;;;23.24;80.82
20696;BME280;10507;52.754;13.040;2022-09-09T07:33:53;100372.63;;;23.32;79.60
20696;BME280;10507;52.754;13.040;2022-09-09T07:36:22;100416.78;;;23.44;79.91
20696;BME280;10507;52.754;13.040;2022-09-09T07:38:57;100231.94;;;22.48;81.53
20696;BME280;10507;52.754;13.040;2022-09-09T07:41:27;100290.50;;;22.26;83.64
20696;BME280;10507;52.754;13.040;2022-09-09T07:43:55;100302.16;;;22.18;84.62
20696;BME280;10507;52.754;13.040;2022-09-09T07:46:24;100348.59;;;22.42;84.13
20696;BME280;10507;52.754;13.040;2022-09-09T07:48:53;100337.81;;;22.67;83.70
20696;BME280;10507;52.754;13.040;2022-09-09T07:51:23;100227.78;;;22.01;84.80
20696;BME280;10507;52.754;13.040;2022-09-09T07:53:53;100297.06;;;21.97;86.00
20696;BME280;10507;52.754;13.040;2022-09-09T07:56:22;100247.00;;;21.99;85.16
20696;BME280;10507;52.754;13.040;2022-09-09T07:58:52;100166.28;;;21.48;85.49
20696;BME280;10507;52.754;13.040;2022-09-09T08:01:23;100180.22;;;21.09;87.10
20696;BME280;10507;52.754;13.040;2022-09-09T08:03:55;100185.91;;;20.80;88.36
20696;BME280;10507;52.754;13.040;2022-09-09T08:06:26;100240.34;;;21.14;87.72
20696;BME280;10507;52.754;13.040;2022-09-09T08:08:54;100298.88;;;21.62;87.04
20696;BME280;10507;52.754;13.040;2022-09-09T08:11:25;100192.84;;;21.36;85.63
20696;BME280;10507;52.754;13.040;2022-09-09T08:13:53;100205.38;;;21.11;86.39
20696;BME280;10507;52.754;13.040;2022-09-09T08:16:29;100291.56;;;21.45;88.26
20696;BME280;10507;52.754;13.040;2022-09-09T08:18:57;100272.16;;;21.57;87.82
20696;BME280;10507;52.754;13.040;2022-09-09T08:21:27;100250.50;;;21.30;88.31
20696;BME280;10507;52.754;13.040;2022-09-09T08:23:58;100281.97;;;21.76;87.61
20696;BME280;10507;52.754;13.040;2022-09-09T08:26:29;100212.66;;;21.46;87.92
20696;BME280;10507;52.754;13.040;2022-09-09T08:28:58;100215.25;;;21.38;87.94
20696;BME280;10507;52.754;13.040;2022-09-09T08:31:28;100206.06;;;21.13;89.07
20696;BME280;10507;52.754;13.040;2022-09-09T08:33:57;100191.22;;;20.71;90.57
20696;BME280;10507;52.754;13.040;2022-09-09T08:36:28;100195.81;;;20.71;90.81
20696;BME280;10507;52.754;13.040;2022-09-09T08:38:57;100192.47;;;20.31;91.74
20696;BME280;10507;52.754;13.040;2022-09-09T08:45:22;100311.84;;;20.49;94.08
20696;BME280;10507;52.754;13.040;2022-09-09T08:48:02;100303.63;;;20.69;93.77
20696;BME280;10507;52.754;13.040;2022-09-09T08:50:35;100280.56;;;20.83;92.48
20696;BME280;10507;52.754;13.040;2022-09-09T08:53:10;100270.00;;;20.80;92.15
20696;BME280;10507;52.754;13.040;2022-09-09T08:55:44;100227.59;;;20.51;92.58
20696;BME280;10507;52.754;13.040;2022-09-09T08:58:14;100205.72;;;20.34;92.68
20696;BME280;10507;52.754;13.040;2022-09-09T09:01:09;100260.06;;;20.43;93.05
20696;BME280;10507;52.754;13.040;2022-09-09T09:03:50;100228.00;;;20.28;92.67
20696;BME280;10507;52.754;13.040;2022-09-09T09:06:31;100279.19;;;20.41;93.75
20696;BME280;10507;52.754;13.040;2022-09-09T09:09:08;100273.41;;;20.54;93.70
20696;BME280;10507;52.754;13.040;2022-09-09T09:11:44;100244.72;;;20.51;92.99
20696;BME280;10507;52.754;13.040;2022-09-09T09:14:17;100185.53;;;20.19;92.79
20696;BME280;10507;52.754;13.040;2022-09-09T09:16:52;100202.00;;;20.08;93.22
20696;BME280;10507;52.754;13.040;2022-09-09T09:19:21;100217.50;;;20.15;93.18
20696;BME280;10507;52.754;13.040;2022-09-09T09:21:56;100245.22;;;20.37;92.94
20696;BME280;10507;52.754;13.040;2022-09-09T09:24:30;100252.16;;;20.59;92.49
20696;BME280;10507;52.754;13.040;2022-09-09T09:27:11;100238.75;;;20.75;91.35
20696;BME280;10507;52.754;13.040;2022-09-09T09:29:39;100214.13;;;20.87;91.11
20696;BME280;10507;52.754;13.040;2022-09-09T09:32:33;100210.47;;;20.96;90.68
20696;BME280;10507;52.754;13.040;2022-09-09T09:35:08;100208.91;;;20.75;91.46
20696;BME280;10507;52.754;13.040;2022-09-09T09:37:40;100343.06;;;21.36;92.68
20696;BME280;10507;52.754;13.040;2022-09-09T09:40:30;100275.19;;;21.54;90.22
20696;BME280;10507;52.754;13.040;2022-09-09T09:42:59;100162.16;;;21.17;89.77
20696;BME280;10507;52.754;13.040;2022-09-09T09:45:31;100146.22;;;20.96;90.19
20696;BME280;10507;52.754;13.040;2022-09-09T09:48:04;100192.50;;;20.95;90.99
20696;BME280;10507;52.754;13.040;2022-09-09T09:50:33;100219.63;;;20.95;91.67
20696;BME280;10507;52.754;13.040;2022-09-09T09:53:03;100219.25;;;21.08;90.89
20696;BME280;10507;52.754;13.040;2022-09-09T09:55:33;100189.69;;;21.05;90.64
20696;BME280;10507;52.754;13.040;2022-09-09T09:58:04;100136.66;;;20.92;89.95
20696;BME280;10507;52.754;13.040;2022-09-09T10:00:33;100144.63;;;20.94;90.13
20696;BME280;10507;52.754;13.040;2022-09-09T10:03:17;100201.56;;;21.22;90.54
20696;BME280;10507;52.754;13.040;2022-09-09T10:05:48;100103.78;;;20.77;90.25
20696;BME280;10507;52.754;13.040;2022-09-09T10:08:16;100145.81;;;20.73;90.96
20696;BME280;10507;52.754;13.040;2022-09-09T10:11:00;100147.59;;;20.83;90.76
20696;BME280;10507;52.754;13.040;2022-09-09T10:13:35;100149.75;;;21.15;89.84
20696;BME280;10507;52.754;13.040;2022-09-09T10:16:17;100116.94;;;21.34;88.02
20696;BME280;10507;52.754;13.040;2022-09-09T10:18:58;100162.13;;;21.35;89.95
20696;BME280;10507;52.754;13.040;2022-09-09T10:21:55;100106.25;;;21.33;89.25
20696;BME280;10507;52.754;13.040;2022-09-09T10:24:46;100081.50;;;21.36;87.81
20696;BME280;10507;52.754;13.040;2022-09-09T10:27:20;100099.09;;;21.50;87.67
20696;BME280;10507;52.754;13.040;2022-09-09T10:30:01;100109.97;;;21.32;89.19
20696;BME280;10507;52.754;13.040;2022-09-09T10:32:47;100078.47;;;21.13;89.17
20696;BME280;10507;52.754;13.040;2022-09-09T10:35:30;100084.81;;;21.22;88.95
20696;BME280;10507;52.754;13.040;2022-09-09T10:38:17;100215.91;;;21.76;89.56
20696;BME280;10507;52.754;13.040;2022-09-09T10:41:01;100150.88;;;22.17;86.24
20696;BME280;10507;52.754;13.040;2022-09-09T10:44:02;100096.75;;;22.32;85.61
20696;BME280;10507;52.754;13.040;2022-09-09T10:46:43;100007.41;;;22.03;84.81
20696;BME280;10507;52.754;13.040;2022-09-09T10:49:27;100005.19;;;21.98;84.35
20696;BME280;10507;52.754;13.040;2022-09-09T10:52:05;99974.78;;;22.03;84.11
20696;BME280;10507;52.754;13.040;2022-09-09T10:54:45;100007.16;;;22.22;83.87
20696;BME280;10507;52.754;13.040;2022-09-09T10:57:24;100024.81;;;22.26;84.13
20696;BME280;10507;52.754;13.040;2022-09-09T10:59:57;100013.34;;;22.06;84.91
20696;BME280;10507;52.754;13.040;2022-09-09T11:02:27;100074.38;;;22.12;86.33
20696;BME280;10507;52.754;13.040;2022-09-09T11:04:59;99982.41;;;21.99;85.02
20696;BME280;10507;52.754;13.040;2022-09-09T11:07:35;100004.34;;;22.06;85.58
20696;BME280;10507;52.754;13.040;2022-09-09T11:10:16;99935.72;;;22.12;83.88
20696;BME280;10507;52.754;13.040;2022-09-09T11:12:47;99939.50;;;22.27;82.79
20696;BME280;10507;52.754;13.040;2022-09-09T11:15:22;99890.34;;;22.37;80.99
20696;BME280;10507;52.754;13.040;2022-09-09T11:17:54;99933.22;;;22.27;82.59
20696;BME280;10507;52.754;13.040;2022-09-09T11:20:23;99962.09;;;22.44;82.88
20696;BME280;10507;52.754;13.040;2022-09-09T11:22:55;99935.03;;;22.67;81.40
20696;BME280;10507;52.754;13.040;2022-09-09T11:25:30;99845.94;;;22.53;80.47
20696;BME280;10507;52.754;13.040;2022-09-09T11:28:17;99833.91;;;22.39;80.44
20696;BME280;10507;52.754;13.040;2022-09-09T11:30:58;99883.19;;;22.44;81.34
20696;BME280;10507;52.754;13.040;2022-09-09T11:33:52;99857.88;;;22.44;80.79
20696;BME280;10507;52.754;13.040;2022-09-09T11:36:35;99917.03;;;22.41;82.57
20696;BME280;10507;52.754;13.040;2022-09-09T11:39:24;99858.03;;;22.42;81.57
20696;BME280;10507;52.754;13.040;2022-09-09T11:42:05;99881.84;;;22.48;81.75
20696;BME280;10507;52.754;13.040;2022-09-09T11:44:33;99803.84;;;22.24;81.14
20696;BME280;10507;52.754;13.040;2022-09-09T11:47:01;99885.44;;;22.40;82.02
20696;BME280;10507;52.754;13.040;2022-09-09T11:49:30;99950.34;;;22.60;82.82
20696;BME280;10507;52.754;13.040;2022-09-09T11:52:11;99919.34;;;22.77;81.85
20696;BME280;10507;52.754;13.040;2022-09-09T11:54:47;99822.09;;;22.71;80.34
20696;BME280;10507;52.754;13.040;2022-09-09T11:57:23;99790.75;;;22.75;79.39
20696;BME280;10507;52.754;13.040;2022-09-09T11:59:52;99768.41;;;22.88;78.17
20696;BME280;10507;52.754;13.040;2022-09-09T12:02:23;99761.31;;;22.79;78.85
20696;BME280;10507;52.754;13.040;2022-09-09T12:04:58;99783.31;;;22.69;79.82
20696;BME280;10507;52.754;13.040;2022-09-09T12:07:34;99769.81;;;22.45;80.46
20696;BME280;10507;52.754;13.040;2022-09-09T12:10:17;99759.13;;;22.35;80.34
20696;BME280;10507;52.754;13.040;2022-09-09T12:12:47;99729.72;;;22.38;79.84
20696;BME280;10507;52.754;13.040;2022-09-09T12:15:24;99727.53;;;22.34;79.89
20696;BME280;10507;52.754;13.040;2022-09-09T12:17:56;99779.16;;;22.42;80.91
20696;BME280;10507;52.754;13.040;2022-09-09T12:20:33;99769.13;;;22.42;80.19
20696;BME280;10507;52.754;13.040;2022-09-09T12:23:13;99744.13;;;22.47;79.85
20696;BME280;10507;52.754;13.040;2022-09-09T12:25:57;99684.16;;;22.40;78.92
20696;BME280;10507;52.754;13.040;2022-09-09T12:28:40;99699.47;;;22.33;79.19
20696;BME280;10507;52.754;13.040;2022-09-09T12:31:14;99696.75;;;22.33;79.39
20696;BME280;10507;52.754;13.040;2022-09-09T12:33:45;99762.09;;;22.65;79.34
20696;BME280;10507;52.754;13.040;2022-09-09T12:36:16;99748.13;;;22.99;78.51
20696;BME280;10507;52.754;13.040;2022-09-09T12:38:46;99679.72;;;23.02;77.23
20696;BME280;10507;52.754;13.040;2022-09-09T12:41:22;99675.78;;;23.04;77.57
20696;BME280;10507;52.754;13.040;2022-09-09T12:43:51;99598.88;;;23.02;75.72
20696;BME280;10507;52.754;13.040;2022-09-09T12:46:23;99632.22;;;23.04;76.25
20696;BME280;10507;52.754;13.040;2022-09-09T12:48:55;99574.22;;;22.96;75.56
20696;BME280;10507;52.754;13.040;2022-09-09T12:51:26;99612.03;;;22.91;76.63
20696;BME280;10507;52.754;13.040;2022-09-09T12:53:55;99544.81;;;22.76;76.26
20696;BME280;10507;52.754;13.040;2022-09-09T12:56:27;99609.47;;;22.74;77.46
20696;BME280;10507;52.754;13.040;2022-09-09T12:58:57;99598.63;;;22.66;77.41
20696;BME280;10507;52.754;13.040;2022-09-09T13:01:27;99629.75;;;22.63;77.92
20696;BME280;10507;52.754;13.040;2022-09-09T13:03:56;99615.28;;;22.71;77.67
20696;BME280;10507;52.754;13.040;2022-09-09T13:06:26;99550.06;;;22.55;76.85
20696;BME280;10507;52.754;13.040;2022-09-09T13:08:56;99603.41;;;22.64;77.35
20696;BME280;10507;52.754;13.040;2022-09-09T13:11:29;99591.41;;;22.73;76.94